sensor_id;sensor_type;location;lat;lon;timestamp;P1;durP1;ratioP1;P2;durP2;ratioP2
60700;SDS011;46541;49.894;10.886;2023-04-09T00:00:11;30.75;;;20.30;;
60700;SDS011;46541;49.894;10.886;2023-04-09T00:02:38;31.98;;;20.25;;
60700;SDS011;46541;49.894;10.886;2023-04-09T00:05:06;35.50;;;21.02;;
60700;SDS011;46541;49.894;10.886;2023-04-09T00:07:33;32.30;;;21.05;;
60700;SDS011;46541;49.894;10.886;2023-04-09T00:09:59;32.70;;;21.17;;
60700;SDS011;46541;49.894;10.886;2023-04-09T00:12:26;36.25;;;23.48;;
60700;SDS011;46541;49.894;10.886;2023-04-09T00:14:55;38.53;;;22.80;;
60700;SDS011;46541;49.894;10.886;2023-04-09T00:17:22;32.55;;;20.95;;
60700;SDS011;46541;49.894;10.886;2023-04-09T00:19:49;33.85;;;21.08;;
60700;SDS011;46541;49.894;10.886;2023-04-09T00:22:16;31.30;;;19.75;;
60700;SDS011;46541;49.894;10.886;2023-04-09T00:24:42;37.97;;;21.67;;
60700;SDS011;46541;49.894;10.886;2023-04-09T00:27:09;34.40;;;21.65;;
60700;SDS011;46541;49.894;10.886;2023-04-09T00:29:36;31.67;;;19.83;;
60700;SDS011;46541;49.894;10.886;2023-04-09T00:32:03;33.95;;;21.10;;
60700;SDS011;46541;49.894;10.886;2023-04-09T00:34:29;33.13;;;20.70;;
60700;SDS011;46541;49.894;10.886;2023-04-09T00:36:56;30.75;;;20.73;;
60700;SDS011;46541;49.894;10.886;2023-04-09T00:39:23;30.23;;;19.63;;
60700;SDS011;46541;49.894;10.886;2023-04-09T00:41:54;31.58;;;20.67;;
60700;SDS011;46541;49.894;10.886;2023-04-09T00:44:24;33.30;;;21.13;;
60700;SDS011;46541;49.894;10.886;2023-04-09T00:46:51;33.85;;;21.63;;
60700;SDS011;46541;49.894;10.886;2023-04-09T00:49:19;34.03;;;21.20;;
60700;SDS011;46541;49.894;10.886;2023-04-09T00:51:46;35.13;;;20.33;;
60700;SDS011;46541;49.894;10.886;2023-04-09T00:54:13;30.55;;;20.10;;
60700;SDS011;46541;49.894;10.886;2023-04-09T00:56:41;33.83;;;20.88;;
60700;SDS011;46541;49.894;10.886;2023-04-09T00:59:08;32.00;;;20.00;;
60700;SDS011;46541;49.894;10.886;2023-04-09T01:01:35;29.15;;;20.00;;
60700;SDS011;46541;49.894;10.886;2023-04-09T01:04:02;33.63;;;20.58;;
60700;SDS011;46541;49.894;10.886;2023-04-09T01:07:04;32.25;;;20.23;;
60700;SDS011;46541;49.894;10.886;2023-04-09T01:09:40;37.03;;;21.63;;
60700;SDS011;46541;49.894;10.886;2023-04-09T01:12:11;32.88;;;20.35;;
60700;SDS011;46541;49.894;10.886;2023-04-09T01:14:58;34.72;;;21.55;;
60700;SDS011;46541;49.894;10.886;2023-04-09T01:20:22;34.63;;;21.42;;
60700;SDS011;46541;49.894;10.886;2023-04-09T01:23:06;32.30;;;20.55;;
60700;SDS011;46541;49.894;10.886;2023-04-09T01:25:44;36.22;;;22.67;;
60700;SDS011;46541;49.894;10.886;2023-04-09T01:28:26;32.70;;;20.42;;
60700;SDS011;46541;49.894;10.886;2023-04-09T01:31:12;34.22;;;21.23;;
60700;SDS011;46541;49.894;10.886;2023-04-09T01:33:43;34.17;;;21.42;;
60700;SDS011;46541;49.894;10.886;2023-04-09T01:36:10;33.92;;;21.80;;
60700;SDS011;46541;49.894;10.886;2023-04-09T01:38:40;35.17;;;20.77;;
60700;SDS011;46541;49.894;10.886;2023-04-09T01:41:09;34.40;;;20.75;;
60700;SDS011;46541;49.894;10.886;2023-04-09T01:43:39;36.13;;;22.60;;
60700;SDS011;46541;49.894;10.886;2023-04-09T01:46:07;32.17;;;20.02;;
60700;SDS011;46541;49.894;10.886;2023-04-09T01:48:35;34.50;;;21.67;;
60700;SDS011;46541;49.894;10.886;2023-04-09T01:51:03;33.35;;;21.58;;
60700;SDS011;46541;49.894;10.886;2023-04-09T01:53:30;35.22;;;20.85;;
60700;SDS011;46541;49.894;10.886;2023-04-09T01:56:00;33.40;;;21.15;;
60700;SDS011;46541;49.894;10.886;2023-04-09T01:58:27;33.25;;;20.77;;
60700;SDS011;46541;49.894;10.886;2023-04-09T02:01:02;32.70;;;21.05;;
60700;SDS011;46541;49.894;10.886;2023-04-09T02:03:47;34.72;;;21.25;;
60700;SDS011;46541;49.894;10.886;2023-04-09T02:06:24;33.40;;;21.27;;
60700;SDS011;46541;49.894;10.886;2023-04-09T02:09:04;32.42;;;20.90;;
60700;SDS011;46541;49.894;10.886;2023-04-09T02:11:33;34.17;;;20.27;;
60700;SDS011;46541;49.894;10.886;2023-04-09T02:14:03;32.17;;;20.45;;
60700;SDS011;46541;49.894;10.886;2023-04-09T02:16:31;34.03;;;21.48;;
60700;SDS011;46541;49.894;10.886;2023-04-09T02:18:58;35.38;;;20.05;;
60700;SDS011;46541;49.894;10.886;2023-04-09T02:21:26;32.72;;;21.02;;
60700;SDS011;46541;49.894;10.886;2023-04-09T02:23:54;33.22;;;20.95;;
60700;SDS011;46541;49.894;10.886;2023-04-09T02:26:21;30.08;;;18.85;;
60700;SDS011;46541;49.894;10.886;2023-04-09T02:28:49;27.73;;;17.95;;
60700;SDS011;46541;49.894;10.886;2023-04-09T02:31:16;35.80;;;21.50;;
60700;SDS011;46541;49.894;10.886;2023-04-09T02:33:43;33.45;;;20.83;;
60700;SDS011;46541;49.894;10.886;2023-04-09T02:36:10;32.05;;;20.90;;
60700;SDS011;46541;49.894;10.886;2023-04-09T02:38:41;35.05;;;21.35;;
60700;SDS011;46541;49.894;10.886;2023-04-09T02:41:08;31.30;;;19.90;;
60700;SDS011;46541;49.894;10.886;2023-04-09T02:43:35;34.50;;;20.73;;
60700;SDS011;46541;49.894;10.886;2023-04-09T02:46:02;35.50;;;21.05;;
60700;SDS011;46541;49.894;10.886;2023-04-09T02:48:29;34.88;;;22.13;;
60700;SDS011;46541;49.894;10.886;2023-04-09T02:50:56;35.15;;;22.38;;
60700;SDS011;46541;49.894;10.886;2023-04-09T02:53:22;35.38;;;20.90;;
60700;SDS011;46541;49.894;10.886;2023-04-09T02:55:49;29.95;;;20.10;;
60700;SDS011;46541;49.894;10.886;2023-04-09T02:58:16;31.83;;;20.55;;
60700;SDS011;46541;49.894;10.886;2023-04-09T03:00:42;34.35;;;20.67;;
60700;SDS011;46541;49.894;10.886;2023-04-09T03:03:09;34.08;;;21.17;;
60700;SDS011;46541;49.894;10.886;2023-04-09T03:05:36;31.52;;;19.73;;
60700;SDS011;46541;49.894;10.886;2023-04-09T03:08:04;30.75;;;18.70;;
60700;SDS011;46541;49.894;10.886;2023-04-09T03:10:30;34.05;;;21.20;;
60700;SDS011;46541;49.894;10.886;2023-04-09T03:12:57;32.10;;;20.02;;
60700;SDS011;46541;49.894;10.886;2023-04-09T03:15:24;35.65;;;19.55;;
60700;SDS011;46541;49.894;10.886;2023-04-09T03:17:51;31.60;;;19.88;;
60700;SDS011;46541;49.894;10.886;2023-04-09T03:20:17;30.75;;;19.42;;
60700;SDS011;46541;49.894;10.886;2023-04-09T03:22:44;29.08;;;18.70;;
60700;SDS011;46541;49.894;10.886;2023-04-09T03:25:11;29.35;;;20.02;;
60700;SDS011;46541;49.894;10.886;2023-04-09T03:27:37;30.02;;;19.38;;
60700;SDS011;46541;49.894;10.886;2023-04-09T03:30:04;34.03;;;20.20;;
60700;SDS011;46541;49.894;10.886;2023-04-09T03:32:31;29.75;;;19.33;;
60700;SDS011;46541;49.894;10.886;2023-04-09T03:34:58;30.63;;;18.42;;
60700;SDS011;46541;49.894;10.886;2023-04-09T03:37:25;33.33;;;19.23;;
60700;SDS011;46541;49.894;10.886;2023-04-09T03:39:51;29.33;;;19.08;;
60700;SDS011;46541;49.894;10.886;2023-04-09T03:42:18;31.35;;;19.38;;
60700;SDS011;46541;49.894;10.886;2023-04-09T03:44:45;29.13;;;20.02;;
60700;SDS011;46541;49.894;10.886;2023-04-09T03:47:12;31.73;;;19.52;;
60700;SDS011;46541;49.894;10.886;2023-04-09T03:49:38;39.13;;;22.08;;
60700;SDS011;46541;49.894;10.886;2023-04-09T03:52:05;39.22;;;23.48;;
60700;SDS011;46541;49.894;10.886;2023-04-09T03:54:32;40.17;;;22.83;;
60700;SDS011;46541;49.894;10.886;2023-04-09T03:56:59;35.83;;;21.20;;
60700;SDS011;46541;49.894;10.886;2023-04-09T03:59:26;34.55;;;20.40;;
60700;SDS011;46541;49.894;10.886;2023-04-09T04:01:53;29.98;;;19.45;;
60700;SDS011;46541;49.894;10.886;2023-04-09T04:04:20;30.55;;;20.00;;
60700;SDS011;46541;49.894;10.886;2023-04-09T04:06:49;31.10;;;19.67;;
60700;SDS011;46541;49.894;10.886;2023-04-09T04:09:16;31.90;;;20.50;;
60700;SDS011;46541;49.894;10.886;2023-04-09T04:11:42;35.17;;;20.85;;
60700;SDS011;46541;49.894;10.886;2023-04-09T04:14:09;36.63;;;21.25;;
60700;SDS011;46541;49.894;10.886;2023-04-09T04:16:36;32.65;;;20.83;;
60700;SDS011;46541;49.894;10.886;2023-04-09T04:19:02;33.80;;;21.15;;
60700;SDS011;46541;49.894;10.886;2023-04-09T04:21:29;34.80;;;19.95;;
60700;SDS011;46541;49.894;10.886;2023-04-09T04:23:56;28.05;;;17.92;;
60700;SDS011;46541;49.894;10.886;2023-04-09T04:26:23;30.20;;;17.67;;
60700;SDS011;46541;49.894;10.886;2023-04-09T04:28:50;34.22;;;21.13;;
60700;SDS011;46541;49.894;10.886;2023-04-09T04:31:17;37.67;;;20.70;;
60700;SDS011;46541;49.894;10.886;2023-04-09T04:33:44;32.67;;;19.52;;
60700;SDS011;46541;49.894;10.886;2023-04-09T04:36:11;31.02;;;19.02;;
60700;SDS011;46541;49.894;10.886;2023-04-09T04:38:39;32.72;;;19.35;;
60700;SDS011;46541;49.894;10.886;2023-04-09T04:41:09;37.38;;;20.25;;
60700;SDS011;46541;49.894;10.886;2023-04-09T04:43:36;27.60;;;18.17;;
60700;SDS011;46541;49.894;10.886;2023-04-09T04:46:03;30.45;;;19.02;;
60700;SDS011;46541;49.894;10.886;2023-04-09T04:48:31;31.63;;;19.55;;
60700;SDS011;46541;49.894;10.886;2023-04-09T04:50:58;30.77;;;19.00;;
60700;SDS011;46541;49.894;10.886;2023-04-09T04:53:26;31.00;;;19.15;;
60700;SDS011;46541;49.894;10.886;2023-04-09T04:55:53;31.63;;;19.33;;
60700;SDS011;46541;49.894;10.886;2023-04-09T04:58:20;32.28;;;19.17;;
60700;SDS011;46541;49.894;10.886;2023-04-09T05:00:47;31.33;;;18.50;;
60700;SDS011;46541;49.894;10.886;2023-04-09T05:03:13;29.38;;;18.45;;
60700;SDS011;46541;49.894;10.886;2023-04-09T05:05:40;30.17;;;17.80;;
60700;SDS011;46541;49.894;10.886;2023-04-09T05:08:07;30.08;;;18.17;;
60700;SDS011;46541;49.894;10.886;2023-04-09T05:10:34;29.08;;;17.35;;
60700;SDS011;46541;49.894;10.886;2023-04-09T05:13:00;26.33;;;16.80;;
60700;SDS011;46541;49.894;10.886;2023-04-09T05:15:27;28.73;;;17.58;;
60700;SDS011;46541;49.894;10.886;2023-04-09T05:17:54;31.23;;;17.85;;
60700;SDS011;46541;49.894;10.886;2023-04-09T05:20:21;27.98;;;16.92;;
60700;SDS011;46541;49.894;10.886;2023-04-09T05:22:48;32.25;;;17.88;;
60700;SDS011;46541;49.894;10.886;2023-04-09T05:25:14;28.17;;;18.10;;
60700;SDS011;46541;49.894;10.886;2023-04-09T05:27:41;28.83;;;18.40;;
60700;SDS011;46541;49.894;10.886;2023-04-09T05:30:08;26.73;;;17.10;;
60700;SDS011;46541;49.894;10.886;2023-04-09T05:32:35;25.80;;;16.58;;
60700;SDS011;46541;49.894;10.886;2023-04-09T05:35:02;27.15;;;16.30;;
60700;SDS011;46541;49.894;10.886;2023-04-09T05:37:29;26.30;;;16.45;;
60700;SDS011;46541;49.894;10.886;2023-04-09T05:39:56;24.42;;;16.20;;
60700;SDS011;46541;49.894;10.886;2023-04-09T05:42:23;25.05;;;15.93;;
60700;SDS011;46541;49.894;10.886;2023-04-09T05:44:49;30.05;;;17.15;;
60700;SDS011;46541;49.894;10.886;2023-04-09T05:47:16;29.35;;;16.52;;
60700;SDS011;46541;49.894;10.886;2023-04-09T05:49:43;24.92;;;15.02;;
60700;SDS011;46541;49.894;10.886;2023-04-09T05:52:09;23.17;;;15.27;;
60700;SDS011;46541;49.894;10.886;2023-04-09T05:54:36;24.63;;;14.82;;
60700;SDS011;46541;49.894;10.886;2023-04-09T05:57:03;25.30;;;16.27;;
60700;SDS011;46541;49.894;10.886;2023-04-09T05:59:29;25.60;;;15.88;;
60700;SDS011;46541;49.894;10.886;2023-04-09T06:01:56;30.08;;;17.02;;
60700;SDS011;46541;49.894;10.886;2023-04-09T06:04:23;33.17;;;18.95;;
60700;SDS011;46541;49.894;10.886;2023-04-09T06:06:50;24.15;;;15.13;;
60700;SDS011;46541;49.894;10.886;2023-04-09T06:09:17;29.90;;;16.58;;
60700;SDS011;46541;49.894;10.886;2023-04-09T06:11:43;33.25;;;16.35;;
60700;SDS011;46541;49.894;10.886;2023-04-09T06:14:10;25.67;;;15.40;;
60700;SDS011;46541;49.894;10.886;2023-04-09T06:16:43;27.38;;;15.77;;
60700;SDS011;46541;49.894;10.886;2023-04-09T06:19:09;26.67;;;16.25;;
60700;SDS011;46541;49.894;10.886;2023-04-09T06:21:37;31.15;;;17.92;;
60700;SDS011;46541;49.894;10.886;2023-04-09T06:24:05;24.85;;;16.45;;
60700;SDS011;46541;49.894;10.886;2023-04-09T06:26:32;30.17;;;17.35;;
60700;SDS011;46541;49.894;10.886;2023-04-09T06:28:59;27.23;;;15.85;;
60700;SDS011;46541;49.894;10.886;2023-04-09T06:31:25;28.75;;;17.60;;
60700;SDS011;46541;49.894;10.886;2023-04-09T06:33:52;27.67;;;16.20;;
60700;SDS011;46541;49.894;10.886;2023-04-09T06:36:20;25.30;;;15.77;;
60700;SDS011;46541;49.894;10.886;2023-04-09T06:38:47;24.33;;;15.63;;
60700;SDS011;46541;49.894;10.886;2023-04-09T06:41:13;27.95;;;16.67;;
60700;SDS011;46541;49.894;10.886;2023-04-09T06:43:40;24.83;;;16.65;;
60700;SDS011;46541;49.894;10.886;2023-04-09T06:46:07;39.08;;;21.60;;
60700;SDS011;46541;49.894;10.886;2023-04-09T06:48:34;34.75;;;19.83;;
60700;SDS011;46541;49.894;10.886;2023-04-09T06:51:01;25.25;;;16.20;;
60700;SDS011;46541;49.894;10.886;2023-04-09T06:53:28;26.65;;;16.77;;
60700;SDS011;46541;49.894;10.886;2023-04-09T06:55:54;27.42;;;17.35;;
60700;SDS011;46541;49.894;10.886;2023-04-09T06:58:22;43.28;;;25.38;;
60700;SDS011;46541;49.894;10.886;2023-04-09T07:00:49;47.97;;;26.25;;
60700;SDS011;46541;49.894;10.886;2023-04-09T07:03:16;44.40;;;26.92;;
60700;SDS011;46541;49.894;10.886;2023-04-09T07:05:43;33.03;;;20.75;;
60700;SDS011;46541;49.894;10.886;2023-04-09T07:08:09;27.67;;;17.83;;
60700;SDS011;46541;49.894;10.886;2023-04-09T07:10:37;26.85;;;17.52;;
60700;SDS011;46541;49.894;10.886;2023-04-09T07:13:03;28.85;;;17.02;;
60700;SDS011;46541;49.894;10.886;2023-04-09T07:15:30;25.08;;;17.05;;
60700;SDS011;46541;49.894;10.886;2023-04-09T07:17:57;26.92;;;16.45;;
60700;SDS011;46541;49.894;10.886;2023-04-09T07:20:24;27.70;;;16.70;;
60700;SDS011;46541;49.894;10.886;2023-04-09T07:22:51;25.70;;;16.75;;
60700;SDS011;46541;49.894;10.886;2023-04-09T07:25:18;29.30;;;16.80;;
60700;SDS011;46541;49.894;10.886;2023-04-09T07:27:44;30.05;;;18.30;;
60700;SDS011;46541;49.894;10.886;2023-04-09T07:30:11;39.78;;;24.27;;
60700;SDS011;46541;49.894;10.886;2023-04-09T07:32:38;31.13;;;20.65;;
60700;SDS011;46541;49.894;10.886;2023-04-09T07:35:06;25.38;;;16.60;;
60700;SDS011;46541;49.894;10.886;2023-04-09T07:37:34;27.77;;;16.67;;
60700;SDS011;46541;49.894;10.886;2023-04-09T07:40:01;25.58;;;16.95;;
60700;SDS011;46541;49.894;10.886;2023-04-09T07:42:31;26.63;;;16.17;;
60700;SDS011;46541;49.894;10.886;2023-04-09T07:44:57;23.52;;;15.77;;
60700;SDS011;46541;49.894;10.886;2023-04-09T07:47:24;24.55;;;15.80;;
60700;SDS011;46541;49.894;10.886;2023-04-09T07:49:52;27.15;;;16.50;;
60700;SDS011;46541;49.894;10.886;2023-04-09T07:52:18;27.17;;;16.83;;
60700;SDS011;46541;49.894;10.886;2023-04-09T07:54:45;22.73;;;14.93;;
60700;SDS011;46541;49.894;10.886;2023-04-09T07:57:12;23.45;;;15.27;;
60700;SDS011;46541;49.894;10.886;2023-04-09T07:59:38;23.92;;;15.27;;
60700;SDS011;46541;49.894;10.886;2023-04-09T08:02:05;21.25;;;14.30;;
60700;SDS011;46541;49.894;10.886;2023-04-09T08:04:32;20.52;;;13.43;;
60700;SDS011;46541;49.894;10.886;2023-04-09T08:06:59;19.55;;;13.18;;
60700;SDS011;46541;49.894;10.886;2023-04-09T08:09:26;22.02;;;14.52;;
60700;SDS011;46541;49.894;10.886;2023-04-09T08:11:53;19.38;;;13.60;;
60700;SDS011;46541;49.894;10.886;2023-04-09T08:14:19;18.33;;;13.30;;
60700;SDS011;46541;49.894;10.886;2023-04-09T08:16:46;20.30;;;13.25;;
60700;SDS011;46541;49.894;10.886;2023-04-09T08:19:15;21.77;;;13.95;;
60700;SDS011;46541;49.894;10.886;2023-04-09T08:21:42;24.00;;;15.23;;
60700;SDS011;46541;49.894;10.886;2023-04-09T08:24:09;21.52;;;14.27;;
60700;SDS011;46541;49.894;10.886;2023-04-09T08:26:37;18.33;;;13.35;;
60700;SDS011;46541;49.894;10.886;2023-04-09T08:29:04;19.08;;;13.43;;
60700;SDS011;46541;49.894;10.886;2023-04-09T08:31:32;17.42;;;12.93;;
60700;SDS011;46541;49.894;10.886;2023-04-09T08:33:59;18.48;;;12.70;;
60700;SDS011;46541;49.894;10.886;2023-04-09T08:36:26;17.23;;;12.20;;
60700;SDS011;46541;49.894;10.886;2023-04-09T08:38:53;18.83;;;13.23;;
60700;SDS011;46541;49.894;10.886;2023-04-09T08:41:23;17.48;;;12.13;;
60700;SDS011;46541;49.894;10.886;2023-04-09T08:43:51;18.88;;;12.82;;
60700;SDS011;46541;49.894;10.886;2023-04-09T08:46:24;18.50;;;12.82;;
60700;SDS011;46541;49.894;10.886;2023-04-09T08:48:51;16.80;;;11.93;;
60700;SDS011;46541;49.894;10.886;2023-04-09T08:51:19;18.27;;;12.88;;
60700;SDS011;46541;49.894;10.886;2023-04-09T08:53:48;17.08;;;12.65;;
60700;SDS011;46541;49.894;10.886;2023-04-09T08:56:22;18.95;;;13.68;;
60700;SDS011;46541;49.894;10.886;2023-04-09T08:58:49;17.65;;;12.70;;
60700;SDS011;46541;49.894;10.886;2023-04-09T09:01:26;18.15;;;12.57;;
60700;SDS011;46541;49.894;10.886;2023-04-09T09:06:35;19.23;;;12.48;;
60700;SDS011;46541;49.894;10.886;2023-04-09T09:11:32;14.70;;;10.88;;
60700;SDS011;46541;49.894;10.886;2023-04-09T09:14:04;16.42;;;12.05;;
60700;SDS011;46541;49.894;10.886;2023-04-09T09:16:33;14.80;;;10.93;;
60700;SDS011;46541;49.894;10.886;2023-04-09T09:19:05;14.35;;;10.32;;
60700;SDS011;46541;49.894;10.886;2023-04-09T09:21:32;14.32;;;10.68;;
60700;SDS011;46541;49.894;10.886;2023-04-09T09:23:59;16.55;;;12.02;;
60700;SDS011;46541;49.894;10.886;2023-04-09T09:26:27;14.63;;;10.48;;
60700;SDS011;46541;49.894;10.886;2023-04-09T09:28:55;14.57;;;10.63;;
60700;SDS011;46541;49.894;10.886;2023-04-09T09:31:25;14.40;;;10.30;;
60700;SDS011;46541;49.894;10.886;2023-04-09T09:33:52;17.38;;;11.18;;
60700;SDS011;46541;49.894;10.886;2023-04-09T09:36:32;16.35;;;11.15;;
60700;SDS011;46541;49.894;10.886;2023-04-09T09:39:16;16.13;;;10.70;;
60700;SDS011;46541;49.894;10.886;2023-04-09T09:41:43;11.40;;;8.77;;
60700;SDS011;46541;49.894;10.886;2023-04-09T09:44:11;13.70;;;10.45;;
60700;SDS011;46541;49.894;10.886;2023-04-09T09:46:54;13.95;;;10.55;;
60700;SDS011;46541;49.894;10.886;2023-04-09T09:49:22;12.50;;;9.52;;
60700;SDS011;46541;49.894;10.886;2023-04-09T09:51:49;12.15;;;9.27;;
60700;SDS011;46541;49.894;10.886;2023-04-09T09:54:18;13.68;;;9.73;;
60700;SDS011;46541;49.894;10.886;2023-04-09T09:56:48;12.63;;;9.25;;
60700;SDS011;46541;49.894;10.886;2023-04-09T09:59:22;14.02;;;8.82;;
60700;SDS011;46541;49.894;10.886;2023-04-09T10:01:54;10.13;;;8.13;;
60700;SDS011;46541;49.894;10.886;2023-04-09T10:04:26;11.15;;;7.97;;
60700;SDS011;46541;49.894;10.886;2023-04-09T10:06:54;15.48;;;9.32;;
60700;SDS011;46541;49.894;10.886;2023-04-09T10:09:22;14.35;;;10.65;;
60700;SDS011;46541;49.894;10.886;2023-04-09T10:11:52;29.83;;;18.30;;
60700;SDS011;46541;49.894;10.886;2023-04-09T10:14:21;14.65;;;10.93;;
60700;SDS011;46541;49.894;10.886;2023-04-09T10:16:48;11.10;;;8.23;;
60700;SDS011;46541;49.894;10.886;2023-04-09T10:19:15;11.00;;;7.75;;
60700;SDS011;46541;49.894;10.886;2023-04-09T10:21:44;8.30;;;6.03;;
60700;SDS011;46541;49.894;10.886;2023-04-09T10:24:12;7.32;;;5.47;;
60700;SDS011;46541;49.894;10.886;2023-04-09T10:26:41;8.00;;;6.40;;
60700;SDS011;46541;49.894;10.886;2023-04-09T10:29:12;11.05;;;7.55;;
60700;SDS011;46541;49.894;10.886;2023-04-09T10:34:21;9.35;;;7.22;;
60700;SDS011;46541;49.894;10.886;2023-04-09T10:36:49;9.27;;;6.60;;
60700;SDS011;46541;49.894;10.886;2023-04-09T10:39:20;6.93;;;5.88;;
60700;SDS011;46541;49.894;10.886;2023-04-09T10:41:51;8.68;;;6.65;;
60700;SDS011;46541;49.894;10.886;2023-04-09T10:44:24;10.20;;;7.63;;
60700;SDS011;46541;49.894;10.886;2023-04-09T10:46:53;10.73;;;8.15;;
60700;SDS011;46541;49.894;10.886;2023-04-09T10:49:21;7.80;;;6.20;;
60700;SDS011;46541;49.894;10.886;2023-04-09T10:54:39;13.38;;;10.88;;
60700;SDS011;46541;49.894;10.886;2023-04-09T10:59:48;9.95;;;7.75;;
60700;SDS011;46541;49.894;10.886;2023-04-09T11:07:43;8.55;;;5.55;;
60700;SDS011;46541;49.894;10.886;2023-04-09T11:10:23;10.32;;;7.72;;
60700;SDS011;46541;49.894;10.886;2023-04-09T11:12:50;7.60;;;6.03;;
60700;SDS011;46541;49.894;10.886;2023-04-09T11:15:17;9.15;;;6.57;;
60700;SDS011;46541;49.894;10.886;2023-04-09T11:17:45;7.28;;;5.93;;
60700;SDS011;46541;49.894;10.886;2023-04-09T11:20:13;8.73;;;7.00;;
60700;SDS011;46541;49.894;10.886;2023-04-09T11:22:51;9.38;;;6.72;;
60700;SDS011;46541;49.894;10.886;2023-04-09T11:25:23;8.07;;;6.60;;
60700;SDS011;46541;49.894;10.886;2023-04-09T11:27:51;8.70;;;6.65;;
60700;SDS011;46541;49.894;10.886;2023-04-09T11:30:19;10.68;;;7.93;;
60700;SDS011;46541;49.894;10.886;2023-04-09T11:32:46;14.02;;;9.48;;
60700;SDS011;46541;49.894;10.886;2023-04-09T11:35:18;8.07;;;6.75;;
60700;SDS011;46541;49.894;10.886;2023-04-09T11:37:46;7.45;;;6.07;;
60700;SDS011;46541;49.894;10.886;2023-04-09T11:42:43;9.65;;;7.15;;
60700;SDS011;46541;49.894;10.886;2023-04-09T11:45:11;11.32;;;8.55;;
60700;SDS011;46541;49.894;10.886;2023-04-09T11:47:38;10.13;;;7.72;;
60700;SDS011;46541;49.894;10.886;2023-04-09T11:50:09;9.07;;;6.88;;
60700;SDS011;46541;49.894;10.886;2023-04-09T11:52:37;10.23;;;7.15;;
60700;SDS011;46541;49.894;10.886;2023-04-09T11:55:06;9.38;;;7.45;;
60700;SDS011;46541;49.894;10.886;2023-04-09T11:57:35;10.80;;;6.10;;
60700;SDS011;46541;49.894;10.886;2023-04-09T12:00:08;7.10;;;5.95;;
60700;SDS011;46541;49.894;10.886;2023-04-09T12:02:36;7.13;;;5.90;;
60700;SDS011;46541;49.894;10.886;2023-04-09T12:05:04;6.40;;;5.20;;
60700;SDS011;46541;49.894;10.886;2023-04-09T12:07:32;13.77;;;7.88;;
60700;SDS011;46541;49.894;10.886;2023-04-09T12:10:08;8.88;;;5.97;;
60700;SDS011;46541;49.894;10.886;2023-04-09T12:12:54;9.35;;;7.13;;
60700;SDS011;46541;49.894;10.886;2023-04-09T12:15:22;8.23;;;6.53;;
60700;SDS011;46541;49.894;10.886;2023-04-09T12:17:52;7.85;;;5.55;;
60700;SDS011;46541;49.894;10.886;2023-04-09T12:23:01;8.15;;;5.82;;
60700;SDS011;46541;49.894;10.886;2023-04-09T12:25:29;7.00;;;5.55;;
60700;SDS011;46541;49.894;10.886;2023-04-09T12:27:57;8.57;;;6.18;;
60700;SDS011;46541;49.894;10.886;2023-04-09T12:30:24;7.03;;;5.38;;
60700;SDS011;46541;49.894;10.886;2023-04-09T12:32:52;7.50;;;5.40;;
60700;SDS011;46541;49.894;10.886;2023-04-09T12:35:20;6.72;;;5.07;;
60700;SDS011;46541;49.894;10.886;2023-04-09T12:37:47;7.18;;;4.85;;
60700;SDS011;46541;49.894;10.886;2023-04-09T12:40:14;6.07;;;4.60;;
60700;SDS011;46541;49.894;10.886;2023-04-09T12:42:42;6.78;;;4.47;;
60700;SDS011;46541;49.894;10.886;2023-04-09T12:45:11;6.05;;;4.57;;
60700;SDS011;46541;49.894;10.886;2023-04-09T12:47:40;8.18;;;5.68;;
60700;SDS011;46541;49.894;10.886;2023-04-09T12:50:07;7.15;;;5.45;;
60700;SDS011;46541;49.894;10.886;2023-04-09T12:52:35;9.10;;;5.15;;
60700;SDS011;46541;49.894;10.886;2023-04-09T12:55:02;7.35;;;4.97;;
60700;SDS011;46541;49.894;10.886;2023-04-09T12:57:29;5.45;;;4.18;;
60700;SDS011;46541;49.894;10.886;2023-04-09T12:59:56;5.93;;;4.45;;
60700;SDS011;46541;49.894;10.886;2023-04-09T13:02:23;9.23;;;5.00;;
60700;SDS011;46541;49.894;10.886;2023-04-09T13:04:50;7.07;;;5.07;;
60700;SDS011;46541;49.894;10.886;2023-04-09T13:07:18;5.32;;;4.55;;
60700;SDS011;46541;49.894;10.886;2023-04-09T13:09:45;6.32;;;4.97;;
60700;SDS011;46541;49.894;10.886;2023-04-09T13:12:16;8.20;;;5.50;;
60700;SDS011;46541;49.894;10.886;2023-04-09T13:14:44;7.72;;;5.43;;
60700;SDS011;46541;49.894;10.886;2023-04-09T13:17:11;7.28;;;5.28;;
60700;SDS011;46541;49.894;10.886;2023-04-09T13:19:39;4.78;;;3.95;;
60700;SDS011;46541;49.894;10.886;2023-04-09T13:22:08;4.30;;;3.38;;
60700;SDS011;46541;49.894;10.886;2023-04-09T13:24:35;6.47;;;4.30;;
60700;SDS011;46541;49.894;10.886;2023-04-09T13:27:03;5.93;;;4.40;;
60700;SDS011;46541;49.894;10.886;2023-04-09T13:29:31;7.38;;;4.85;;
60700;SDS011;46541;49.894;10.886;2023-04-09T13:31:58;7.32;;;4.97;;
60700;SDS011;46541;49.894;10.886;2023-04-09T13:34:26;5.03;;;4.20;;
60700;SDS011;46541;49.894;10.886;2023-04-09T13:36:53;6.00;;;4.55;;
60700;SDS011;46541;49.894;10.886;2023-04-09T13:39:20;5.60;;;3.78;;
60700;SDS011;46541;49.894;10.886;2023-04-09T13:41:47;5.18;;;4.35;;
60700;SDS011;46541;49.894;10.886;2023-04-09T13:44:13;5.53;;;4.18;;
60700;SDS011;46541;49.894;10.886;2023-04-09T13:46:40;7.70;;;5.47;;
60700;SDS011;46541;49.894;10.886;2023-04-09T13:49:07;7.72;;;5.47;;
60700;SDS011;46541;49.894;10.886;2023-04-09T13:51:34;6.05;;;4.50;;
60700;SDS011;46541;49.894;10.886;2023-04-09T13:54:01;7.28;;;4.95;;
60700;SDS011;46541;49.894;10.886;2023-04-09T13:56:31;12.07;;;5.78;;
60700;SDS011;46541;49.894;10.886;2023-04-09T13:58:57;11.38;;;6.75;;
60700;SDS011;46541;49.894;10.886;2023-04-09T14:01:24;7.18;;;5.32;;
60700;SDS011;46541;49.894;10.886;2023-04-09T14:03:53;7.43;;;4.82;;
60700;SDS011;46541;49.894;10.886;2023-04-09T14:06:20;8.50;;;5.97;;
60700;SDS011;46541;49.894;10.886;2023-04-09T14:08:47;8.55;;;6.10;;
60700;SDS011;46541;49.894;10.886;2023-04-09T14:11:14;9.93;;;6.57;;
60700;SDS011;46541;49.894;10.886;2023-04-09T14:13:41;11.18;;;7.05;;
60700;SDS011;46541;49.894;10.886;2023-04-09T14:16:08;8.00;;;5.40;;
60700;SDS011;46541;49.894;10.886;2023-04-09T14:18:35;6.03;;;4.20;;
60700;SDS011;46541;49.894;10.886;2023-04-09T14:21:02;6.63;;;4.80;;
60700;SDS011;46541;49.894;10.886;2023-04-09T14:23:29;6.95;;;4.70;;
60700;SDS011;46541;49.894;10.886;2023-04-09T14:25:55;5.65;;;4.70;;
60700;SDS011;46541;49.894;10.886;2023-04-09T14:28:25;7.82;;;7.03;;
60700;SDS011;46541;49.894;10.886;2023-04-09T14:30:52;7.00;;;5.47;;
60700;SDS011;46541;49.894;10.886;2023-04-09T14:33:19;8.07;;;5.45;;
60700;SDS011;46541;49.894;10.886;2023-04-09T14:35:46;8.77;;;5.03;;
60700;SDS011;46541;49.894;10.886;2023-04-09T14:38:12;6.93;;;4.88;;
60700;SDS011;46541;49.894;10.886;2023-04-09T14:40:39;7.55;;;5.53;;
60700;SDS011;46541;49.894;10.886;2023-04-09T14:43:06;5.80;;;4.55;;
60700;SDS011;46541;49.894;10.886;2023-04-09T14:45:32;5.18;;;4.20;;
60700;SDS011;46541;49.894;10.886;2023-04-09T14:47:59;5.95;;;4.72;;